createdAt,value
2022-09-01T00:01:54.391Z,12.39
2022-09-01T00:04:59.002Z,12.34
2022-09-01T00:08:00.771Z,12.31
2022-09-01T00:11:02.393Z,12.28
2022-09-01T00:14:06.815Z,12.26
2022-09-01T00:17:23.795Z,12.22
2022-09-01T00:20:25.518Z,12.19
2022-09-01T00:23:28.451Z,12.15
2022-09-01T00:26:30.460Z,12.13
2022-09-01T00:29:32.088Z,12.09
2022-09-01T00:32:33.637Z,12.08
2022-09-01T00:35:37.243Z,12.04
2022-09-01T00:38:39.129Z,12.00
2022-09-01T00:41:44.986Z,11.98
2022-09-01T00:44:46.846Z,11.94
2022-09-01T00:47:49.327Z,11.91
2022-09-01T00:50:51.040Z,11.88
2022-09-01T00:53:58.803Z,11.83
2022-09-01T00:57:03.153Z,11.79
2022-09-01T01:00:16.435Z,11.73
2022-09-01T01:03:18.061Z,11.68
2022-09-01T01:06:24.003Z,11.67
2022-09-01T01:09:29.287Z,11.64
2022-09-01T01:12:30.884Z,11.60
2022-09-01T01:15:32.589Z,11.57
2022-09-01T01:18:34.201Z,11.53
2022-09-01T01:22:01.118Z,11.48
2022-09-01T01:25:02.764Z,11.40
2022-09-01T01:28:13.433Z,11.36
2022-09-01T01:31:18.637Z,11.31
2022-09-01T01:34:23.400Z,11.26
2022-09-01T01:37:25.611Z,11.23
2022-09-01T01:40:29.061Z,11.17
2022-09-01T01:43:30.893Z,11.12
2022-09-01T01:46:34.793Z,11.09
2022-09-01T01:49:36.886Z,11.05
2022-09-01T01:52:38.497Z,11.03
2022-09-01T01:55:51.626Z,11.03
2022-09-01T01:58:56.336Z,11.01
2022-09-01T02:01:58.345Z,10.96
2022-09-01T02:05:00.465Z,10.94
2022-09-01T02:08:06.995Z,10.92
2022-09-01T02:11:09.296Z,10.92
2022-09-01T02:14:13.452Z,10.90
2022-09-01T02:17:15.120Z,10.88
2022-09-01T02:20:16.784Z,10.88
2022-09-01T02:23:23.529Z,10.88
2022-09-01T02:26:30.185Z,10.88
2022-09-01T02:29:38.593Z,10.86
2022-09-01T02:32:45.253Z,10.86
2022-09-01T02:35:49.048Z,10.86
2022-09-01T02:38:53.348Z,10.86
2022-09-01T02:41:57.011Z,10.84
2022-09-01T02:44:58.806Z,10.84
2022-09-01T02:48:00.407Z,10.86
2022-09-01T02:51:04.939Z,10.86
2022-09-01T02:54:06.666Z,10.85
2022-09-01T02:57:09.124Z,10.83
2022-09-01T03:00:22.822Z,10.81
2022-09-01T03:03:25.329Z,10.81
2022-09-01T03:06:28.194Z,10.82
2022-09-01T03:09:29.788Z,10.82
2022-09-01T03:12:31.317Z,10.81
2022-09-01T03:15:34.119Z,10.80
2022-09-01T03:18:35.933Z,10.80
2022-09-01T03:21:43.928Z,10.80
2022-09-01T03:24:45.515Z,10.81
2022-09-01T03:27:47.518Z,10.81
2022-09-01T03:30:52.165Z,10.82
2022-09-01T03:33:57.155Z,10.82
2022-09-01T03:36:58.696Z,10.82
2022-09-01T03:40:01.748Z,10.84
2022-09-01T03:43:05.164Z,10.86
2022-09-01T03:46:08.039Z,10.85
2022-09-01T03:49:15.407Z,10.86
2022-09-01T03:52:18.105Z,10.86
2022-09-01T03:55:26.796Z,10.84
2022-09-01T03:58:28.581Z,10.84
2022-09-01T04:01:37.958Z,10.85
2022-09-01T04:04:39.744Z,10.86
2022-09-01T04:07:41.401Z,10.87
2022-09-01T04:10:54.243Z,10.88
2022-09-01T04:13:56.631Z,10.90
2022-09-01T04:17:17.017Z,10.92
2022-09-01T04:20:23.540Z,10.92
2022-09-01T04:23:32.007Z,10.92
2022-09-01T04:26:33.951Z,10.91
2022-09-01T04:29:36.040Z,10.91
2022-09-01T04:32:40.387Z,10.92
2022-09-01T04:35:42.032Z,10.93
2022-09-01T04:38:43.709Z,10.94
2022-09-01T04:41:51.186Z,10.96
2022-09-01T04:44:54.657Z,10.99
2022-09-01T04:47:56.252Z,10.99
2022-09-01T04:50:58.733Z,11.00
2022-09-01T04:54:02.995Z,11.00
2022-09-01T04:57:07.061Z,10.99
2022-09-01T05:00:22.344Z,11.01
2022-09-01T05:03:24.638Z,11.04
2022-09-01T05:06:26.485Z,11.09
2022-09-01T05:09:35.710Z,11.13
2022-09-01T05:12:37.400Z,11.17
2022-09-01T05:15:47.949Z,11.23
2022-09-01T05:18:50.200Z,11.29
2022-09-01T05:21:51.788Z,11.34
2022-09-01T05:24:55.032Z,11.41
2022-09-01T05:27:57.773Z,11.47
2022-09-01T05:31:02.193Z,11.54
2022-09-01T05:34:04.902Z,11.61
2022-09-01T05:37:14.607Z,11.67
2022-09-01T05:40:17.126Z,11.73
2022-09-01T05:43:18.855Z,11.77
2022-09-01T05:46:23.637Z,11.83
2022-09-01T05:49:26.922Z,11.88
2022-09-01T05:52:34.049Z,11.97
2022-09-01T05:55:38.237Z,12.08
2022-09-01T06:02:02.846Z,12.29
2022-09-01T06:05:04.963Z,12.54
2022-09-01T06:08:10.755Z,12.69
2022-09-01T06:11:17.741Z,12.72
2022-09-01T06:14:20.541Z,12.72
2022-09-01T06:17:25.798Z,12.72
2022-09-01T06:20:27.843Z,12.72
2022-09-01T06:23:29.849Z,12.75
2022-09-01T06:26:35.112Z,12.75
2022-09-01T06:29:40.192Z,12.79
2022-09-01T06:32:44.296Z,12.82
2022-09-01T06:35:47.630Z,12.84
2022-09-01T06:38:54.087Z,12.89
2022-09-01T06:41:57.254Z,12.94
2022-09-01T06:44:59.854Z,13.02
2022-09-01T06:48:01.605Z,13.07
2022-09-01T06:51:21.275Z,13.15
2022-09-01T06:54:25.949Z,13.21
2022-09-01T07:00:52.463Z,13.37
2022-09-01T07:03:57.062Z,13.45
2022-09-01T07:06:59.499Z,13.54
2022-09-01T07:13:24.003Z,13.74
2022-09-01T07:16:33.335Z,13.86
2022-09-01T07:19:53.070Z,13.97
2022-09-01T07:23:05.536Z,14.10
2022-09-01T07:26:08.161Z,14.19
2022-09-01T07:29:09.964Z,14.32
2022-09-01T07:35:38.124Z,14.59
2022-09-01T07:39:48.224Z,14.70
2022-09-01T07:45:30.929Z,14.93
2022-09-01T07:48:36.917Z,15.01
2022-09-01T07:51:55.215Z,15.12
2022-09-01T07:54:57.067Z,15.18
2022-09-01T07:57:59.521Z,15.22
2022-09-01T08:01:02.776Z,15.27
2022-09-01T08:04:04.430Z,15.30
2022-09-01T08:07:06.001Z,15.34
2022-09-01T08:10:08.640Z,15.38
2022-09-01T08:13:15.320Z,15.44
2022-09-01T08:16:18.180Z,15.49
2022-09-01T08:19:20.289Z,15.53
2022-09-01T08:22:24.191Z,15.59
2022-09-01T08:25:26.267Z,15.65
2022-09-01T08:28:28.199Z,15.72
2022-09-01T08:31:31.347Z,15.80
2022-09-01T08:34:34.749Z,15.85
2022-09-01T08:37:37.657Z,15.90
2022-09-01T08:40:42.080Z,15.98
2022-09-01T08:44:00.293Z,16.05
2022-09-01T08:47:07.133Z,16.10
2022-09-01T08:50:09.716Z,16.16
2022-09-01T08:53:27.766Z,16.22
2022-09-01T08:56:29.644Z,16.29
2022-09-01T08:59:31.432Z,16.37
2022-09-01T09:02:57.182Z,16.47
2022-09-01T09:06:24.675Z,16.54
2022-09-01T09:09:53.716Z,16.62
2022-09-01T09:13:43.710Z,16.68
2022-09-01T09:16:51.530Z,16.73
2022-09-01T09:19:55.597Z,16.79
2022-09-01T09:22:59.737Z,16.85
2022-09-01T09:26:01.623Z,16.87
2022-09-01T09:29:03.609Z,16.90
2022-09-01T09:32:22.523Z,16.97
2022-09-01T09:35:36.551Z,17.06
2022-09-01T09:38:38.365Z,17.16
2022-09-01T09:41:41.721Z,17.27
2022-09-01T09:44:52.884Z,17.47
2022-09-01T09:47:56.895Z,17.65
2022-09-01T09:51:17.344Z,17.84
2022-09-01T09:54:23.039Z,17.97
2022-09-01T09:57:24.748Z,18.15
2022-09-01T10:00:26.407Z,18.30
2022-09-01T10:03:37.269Z,18.44
2022-09-01T10:06:45.046Z,18.57
2022-09-01T10:09:46.778Z,18.76
2022-09-01T10:12:48.383Z,18.92
2022-09-01T10:16:05.887Z,19.04
2022-09-01T10:19:16.186Z,19.15
2022-09-01T10:22:18.823Z,19.25
2022-09-01T10:25:26.337Z,19.33
2022-09-01T10:28:32.656Z,19.46
2022-09-01T10:31:37.093Z,19.63
2022-09-01T10:34:42.092Z,19.72
2022-09-01T10:37:45.902Z,19.79
2022-09-01T10:41:07.195Z,19.85
2022-09-01T10:44:11.937Z,19.88
2022-09-01T10:47:33.727Z,19.94
2022-09-01T10:50:35.959Z,20.07
2022-09-01T10:53:38.709Z,20.27
2022-09-01T10:56:51.299Z,20.36
2022-09-01T10:59:56.801Z,20.39
2022-09-01T11:03:31.515Z,20.46
2022-09-01T11:07:13.939Z,20.48
2022-09-01T11:10:39.678Z,20.51
2022-09-01T11:13:55.020Z,20.53
2022-09-01T11:17:14.092Z,20.55
2022-09-01T11:20:25.145Z,20.60
2022-09-01T11:23:34.049Z,20.71
2022-09-01T11:26:46.264Z,20.81
2022-09-01T11:29:57.285Z,20.86
2022-09-01T11:33:24.114Z,20.92
2022-09-01T11:36:36.507Z,21.04
2022-09-01T11:39:47.933Z,21.13
2022-09-01T11:42:54.369Z,21.18
2022-09-01T11:46:18.838Z,21.23
2022-09-01T11:49:30.397Z,21.33
2022-09-01T11:52:36.348Z,21.38
2022-09-01T11:55:41.177Z,21.50
2022-09-01T11:58:43.082Z,21.65
2022-09-01T12:01:44.831Z,21.63
2022-09-01T12:04:46.600Z,21.59
2022-09-01T12:07:48.385Z,21.70
2022-09-01T12:10:50.123Z,21.77
2022-09-01T12:14:11.064Z,21.78
2022-09-01T12:17:20.429Z,21.71
2022-09-01T12:20:29.790Z,21.67
2022-09-01T12:23:33.192Z,21.68
2022-09-01T12:26:34.825Z,21.67
2022-09-01T12:29:38.309Z,21.69
2022-09-01T12:32:40.072Z,21.69
2022-09-01T12:35:41.986Z,21.73
2022-09-01T12:38:43.708Z,21.76
2022-09-01T12:41:48.616Z,21.83
2022-09-01T12:45:10.754Z,21.87
2022-09-01T12:48:33.439Z,21.94
2022-09-01T12:51:35.853Z,21.90
2022-09-01T12:54:38.295Z,21.80
2022-09-01T12:57:49.247Z,21.83
2022-09-01T13:01:16.391Z,21.84
2022-09-01T13:04:21.289Z,21.61
2022-09-01T13:07:22.997Z,21.35
2022-09-01T13:10:28.473Z,21.16
2022-09-01T13:13:31.110Z,20.95
2022-09-01T13:16:32.825Z,20.83
2022-09-01T13:19:34.424Z,20.84
2022-09-01T13:22:36.225Z,20.89
2022-09-01T13:25:38.173Z,20.91
2022-09-01T13:28:40.935Z,20.90
2022-09-01T13:32:16.684Z,20.95
2022-09-01T13:35:06.852Z,21.09
2022-09-01T13:38:08.443Z,21.17
2022-09-01T13:41:11.681Z,21.25
2022-09-01T13:44:13.428Z,21.31
2022-09-01T13:47:30.853Z,21.40
2022-09-01T13:51:14.217Z,21.57
2022-09-01T13:53:54.420Z,21.71
2022-09-01T13:56:56.058Z,21.89
2022-09-01T13:59:58.712Z,22.02
2022-09-01T14:03:04.040Z,21.90
2022-09-01T14:06:06.886Z,21.76
2022-09-01T14:09:08.622Z,21.63
2022-09-01T14:12:10.179Z,21.51
2022-09-01T14:15:16.571Z,21.49
2022-09-01T14:18:21.859Z,21.51
2022-09-01T14:21:23.511Z,21.55
2022-09-01T14:24:26.615Z,21.63
2022-09-01T14:27:28.484Z,21.74
2022-09-01T14:30:32.271Z,21.73
2022-09-01T14:33:34.153Z,21.63
2022-09-01T14:36:35.729Z,21.51
2022-09-01T14:39:38.666Z,21.43
2022-09-01T14:42:40.744Z,21.39
2022-09-01T14:45:45.962Z,21.38
2022-09-01T14:48:48.937Z,21.39
2022-09-01T14:55:12.105Z,21.37
2022-09-01T14:58:13.652Z,21.38
2022-09-01T15:01:33.565Z,21.37
2022-09-01T15:04:36.215Z,21.31
2022-09-01T15:07:38.578Z,21.26
2022-09-01T15:10:40.973Z,21.22
2022-09-01T15:13:45.329Z,21.16
2022-09-01T15:16:47.254Z,21.11
2022-09-01T15:19:49.242Z,21.03
2022-09-01T15:22:51.646Z,20.90
2022-09-01T15:25:55.216Z,20.82
2022-09-01T15:28:59.692Z,20.77
2022-09-01T15:32:01.760Z,20.71
2022-09-01T15:35:03.710Z,20.71
2022-09-01T15:38:07.081Z,20.69
2022-09-01T15:41:08.823Z,20.70
2022-09-01T15:44:11.125Z,20.73
2022-09-01T15:47:12.667Z,20.76
2022-09-01T15:50:21.882Z,20.80
2022-09-01T15:53:23.981Z,20.81
2022-09-01T15:56:26.635Z,20.83
2022-09-01T15:59:29.151Z,20.85
2022-09-01T16:02:31.042Z,20.83
2022-09-01T16:05:35.150Z,20.80
2022-09-01T16:08:36.791Z,20.81
2022-09-01T16:11:41.101Z,20.84
2022-09-01T16:14:42.719Z,20.88
2022-09-01T16:17:53.465Z,20.85
2022-09-01T16:21:17.896Z,20.75
2022-09-01T16:24:20.582Z,20.60
2022-09-01T16:27:27.364Z,20.51
2022-09-01T16:30:29.929Z,20.41
2022-09-01T16:33:33.232Z,20.38
2022-09-01T16:37:19.895Z,20.35
2022-09-01T16:40:57.906Z,20.29
2022-09-01T16:44:06.838Z,20.23
2022-09-01T16:47:08.426Z,20.20
2022-09-01T16:50:16.285Z,20.17
2022-09-01T16:54:02.073Z,20.14
2022-09-01T16:57:35.737Z,20.08
2022-09-01T17:01:18.448Z,20.06
2022-09-01T17:04:23.009Z,20.08
2022-09-01T17:07:29.450Z,20.06
2022-09-01T17:10:43.415Z,20.07
2022-09-01T17:13:52.153Z,20.04
2022-09-01T17:17:05.552Z,20.02
2022-09-01T17:20:08.210Z,20.01
2022-09-01T17:23:15.546Z,19.98
2022-09-01T17:26:31.370Z,19.92
2022-09-01T17:29:44.928Z,19.81
2022-09-01T17:33:05.872Z,19.66
2022-09-01T17:36:48.553Z,19.55
2022-09-01T17:40:15.854Z,19.44
2022-09-01T17:43:26.153Z,19.31
2022-09-01T17:46:48.069Z,19.20
2022-09-01T17:50:05.901Z,19.10
2022-09-01T17:53:26.112Z,19.02
2022-09-01T17:56:46.203Z,18.96
2022-09-01T18:00:24.945Z,18.87
2022-09-01T18:03:37.319Z,18.80
2022-09-01T18:06:57.539Z,18.74
2022-09-01T18:10:02.575Z,18.67
2022-09-01T18:13:07.334Z,18.60
2022-09-01T18:16:21.198Z,18.54
2022-09-01T18:19:32.422Z,18.45
2022-09-01T18:22:41.640Z,18.35
2022-09-01T18:25:57.658Z,18.27
2022-09-01T18:29:00.735Z,18.19
2022-09-01T18:32:12.193Z,18.22
2022-09-01T18:35:34.082Z,18.11
2022-09-01T18:38:47.328Z,18.00
2022-09-01T18:42:31.405Z,17.92
2022-09-01T18:45:54.447Z,17.80
2022-09-01T18:49:23.872Z,17.71
2022-09-01T18:52:25.848Z,17.61
2022-09-01T18:55:39.487Z,17.54
2022-09-01T18:58:53.428Z,17.46
2022-09-01T19:02:25.727Z,17.35
2022-09-01T19:05:35.517Z,17.24
2022-09-01T19:08:59.113Z,17.19
2022-09-01T19:12:30.309Z,17.11
2022-09-01T19:16:13.787Z,17.02
2022-09-01T19:19:27.525Z,16.91
2022-09-01T19:22:51.799Z,16.85
2022-09-01T19:26:01.036Z,16.76
2022-09-01T19:29:12.264Z,16.69
2022-09-01T19:32:18.602Z,16.63
2022-09-01T19:35:20.347Z,16.57
2022-09-01T19:38:27.692Z,16.49
2022-09-01T19:41:41.469Z,16.41
2022-09-01T19:45:13.510Z,16.34
2022-09-01T19:48:32.975Z,16.27
2022-09-01T19:52:13.612Z,16.22
2022-09-01T19:55:56.559Z,16.16
2022-09-01T19:59:19.325Z,16.13
2022-09-01T20:02:32.139Z,16.05
2022-09-01T20:05:41.421Z,15.97
2022-09-01T20:09:05.634Z,15.91
2022-09-01T20:12:41.189Z,15.81
2022-09-01T20:16:06.000Z,15.71
2022-09-01T20:19:31.752Z,15.62
2022-09-01T20:23:02.865Z,15.52
2022-09-01T20:26:15.007Z,15.45
2022-09-01T20:29:20.350Z,15.42
2022-09-01T20:32:52.205Z,15.38
2022-09-01T20:36:07.062Z,15.35
2022-09-01T20:39:56.388Z,15.30
2022-09-01T20:43:26.309Z,15.25
2022-09-01T20:46:28.396Z,15.19
2022-09-01T20:49:32.000Z,15.17
2022-09-01T20:52:58.762Z,15.14
2022-09-01T20:56:36.266Z,15.06
2022-09-01T20:59:50.587Z,15.00
2022-09-01T21:03:39.448Z,14.95
2022-09-01T21:07:15.075Z,14.88
2022-09-01T21:10:28.812Z,14.82
2022-09-01T21:13:58.824Z,14.77
2022-09-01T21:17:30.518Z,14.73
2022-09-01T21:20:42.929Z,14.66
2022-09-01T21:23:44.481Z,14.61
2022-09-01T21:26:48.992Z,14.60
2022-09-01T21:29:55.999Z,14.56
2022-09-01T21:32:57.613Z,14.52
2022-09-01T21:36:00.503Z,14.47
2022-09-01T21:39:02.132Z,14.43
2022-09-01T21:42:06.147Z,14.37
2022-09-01T21:45:11.753Z,14.32
2022-09-01T21:48:13.325Z,14.27
2022-09-01T21:51:14.916Z,14.23
2022-09-01T21:54:17.036Z,14.19
2022-09-01T21:57:20.887Z,14.14
2022-09-01T22:00:26.897Z,14.10
2022-09-01T22:03:28.495Z,14.06
2022-09-01T22:06:30.521Z,14.02
2022-09-01T22:09:32.899Z,13.98
2022-09-01T22:12:39.303Z,13.94
2022-09-01T22:15:49.460Z,13.94
2022-09-01T22:18:51.155Z,13.91
2022-09-01T22:21:53.764Z,13.84
2022-09-01T22:24:55.321Z,13.79
2022-09-01T22:28:03.254Z,13.75
2022-09-01T22:31:04.983Z,13.72
2022-09-01T22:34:07.736Z,13.67
2022-09-01T22:37:09.461Z,13.62
2022-09-01T22:40:13.018Z,13.59
2022-09-01T22:43:18.314Z,13.54
2022-09-01T22:46:21.932Z,13.46
2022-09-01T22:49:24.001Z,13.37
2022-09-01T22:52:25.764Z,13.32
2022-09-01T22:55:28.139Z,13.27
2022-09-01T22:58:29.914Z,13.24
2022-09-01T23:01:35.527Z,13.19
2022-09-01T23:04:38.096Z,13.15
2022-09-01T23:07:39.944Z,13.07
2022-09-01T23:10:41.953Z,12.99
2022-09-01T23:13:43.708Z,12.91
2022-09-01T23:16:45.952Z,12.85
2022-09-01T23:19:47.670Z,12.77
2022-09-01T23:22:49.544Z,12.72
2022-09-01T23:25:53.551Z,12.66
2022-09-01T23:28:56.261Z,12.61
2022-09-01T23:31:57.885Z,12.55
2022-09-01T23:34:59.832Z,12.47
2022-09-01T23:38:01.442Z,12.43
2022-09-01T23:41:07.171Z,12.37
2022-09-01T23:44:11.071Z,12.34
2022-09-01T23:47:12.765Z,12.30
2022-09-01T23:50:14.384Z,12.26
2022-09-01T23:53:16.743Z,12.22
2022-09-01T23:56:21.733Z,12.18
2022-09-01T23:59:27.524Z,12.15
